sensor_id;sensor_type;location;lat;lon;timestamp;pressure;altitude;pressure_sealevel;temperature;humidity
10652;BME280;5374;42.742;23.266;2022-11-03T00:02:46;95967.25;;;15.70;50.64
10652;BME280;5374;42.742;23.266;2022-11-03T00:05:33;95972.56;;;15.86;50.37
10652;BME280;5374;42.742;23.266;2022-11-03T00:08:39;95971.53;;;15.77;50.74
10652;BME280;5374;42.742;23.266;2022-11-03T00:11:27;95979.00;;;15.85;50.42
10652;BME280;5374;42.742;23.266;2022-11-03T00:14:14;95983.56;;;15.84;50.68
10652;BME280;5374;42.742;23.266;2022-11-03T00:17:03;95986.78;;;15.86;51.16
10652;BME280;5374;42.742;23.266;2022-11-03T00:19:50;95992.13;;;15.86;51.56
10652;BME280;5374;42.742;23.266;2022-11-03T00:22:37;95988.91;;;15.84;52.01
10652;BME280;5374;42.742;23.266;2022-11-03T00:25:24;95984.13;;;15.81;52.35
10652;BME280;5374;42.742;23.266;2022-11-03T00:28:11;95981.16;;;15.72;52.38
10652;BME280;5374;42.742;23.266;2022-11-03T00:30:59;95996.94;;;15.84;52.31
10652;BME280;5374;42.742;23.266;2022-11-03T00:33:48;95998.31;;;15.77;52.52
10652;BME280;5374;42.742;23.266;2022-11-03T00:36:37;95970.97;;;15.59;52.46
10652;BME280;5374;42.742;23.266;2022-11-03T00:39:25;95996.44;;;15.72;52.38
10652;BME280;5374;42.742;23.266;2022-11-03T00:42:12;96005.53;;;15.71;52.28
10652;BME280;5374;42.742;23.266;2022-11-03T00:44:59;96002.06;;;15.70;52.19
10652;BME280;5374;42.742;23.266;2022-11-03T00:47:46;96003.94;;;15.70;52.44
10652;BME280;5374;42.742;23.266;2022-11-03T00:50:48;96007.41;;;15.76;52.91
10652;BME280;5374;42.742;23.266;2022-11-03T00:53:38;95997.22;;;15.72;53.73
10652;BME280;5374;42.742;23.266;2022-11-03T00:56:26;96009.56;;;15.73;53.55
10652;BME280;5374;42.742;23.266;2022-11-03T00:59:14;95999.91;;;15.72;53.72
10652;BME280;5374;42.742;23.266;2022-11-03T01:02:01;96006.34;;;15.77;53.45
10652;BME280;5374;42.742;23.266;2022-11-03T01:04:48;96000.97;;;15.71;54.00
10652;BME280;5374;42.742;23.266;2022-11-03T01:07:54;95997.75;;;15.69;55.04
10652;BME280;5374;42.742;23.266;2022-11-03T01:10:41;95994.53;;;15.62;55.92
10652;BME280;5374;42.742;23.266;2022-11-03T01:13:49;95997.25;;;15.57;56.89
10652;BME280;5374;42.742;23.266;2022-11-03T01:16:36;95992.94;;;15.56;57.18
10652;BME280;5374;42.742;23.266;2022-11-03T01:19:24;95980.59;;;15.45;57.29
10652;BME280;5374;42.742;23.266;2022-11-03T01:22:12;95995.06;;;15.49;58.43
10652;BME280;5374;42.742;23.266;2022-11-03T01:25:01;95993.19;;;15.50;58.65
10652;BME280;5374;42.742;23.266;2022-11-03T01:27:48;95989.69;;;15.49;58.77
10652;BME280;5374;42.742;23.266;2022-11-03T01:30:35;95992.13;;;15.51;58.77
10652;BME280;5374;42.742;23.266;2022-11-03T01:33:22;95979.22;;;15.37;59.07
10652;BME280;5374;42.742;23.266;2022-11-03T01:36:10;95979.53;;;15.36;59.29
10652;BME280;5374;42.742;23.266;2022-11-03T01:38:57;95989.13;;;15.37;59.57
10652;BME280;5374;42.742;23.266;2022-11-03T01:41:48;95990.22;;;15.41;59.54
10652;BME280;5374;42.742;23.266;2022-11-03T01:44:36;96002.00;;;15.45;59.45
10652;BME280;5374;42.742;23.266;2022-11-03T01:47:25;96000.91;;;15.41;59.49
10652;BME280;5374;42.742;23.266;2022-11-03T01:50:16;95997.44;;;15.40;59.39
10652;BME280;5374;42.742;23.266;2022-11-03T01:53:04;96006.28;;;15.41;59.77
10652;BME280;5374;42.742;23.266;2022-11-03T01:55:53;96006.00;;;15.37;59.56
10652;BME280;5374;42.742;23.266;2022-11-03T01:58:45;96002.81;;;15.35;59.58
10652;BME280;5374;42.742;23.266;2022-11-03T02:01:34;95997.72;;;15.34;59.72
10652;BME280;5374;42.742;23.266;2022-11-03T02:04:25;95999.56;;;15.23;60.10
10652;BME280;5374;42.742;23.266;2022-11-03T02:07:19;96006.81;;;15.28;60.14
10652;BME280;5374;42.742;23.266;2022-11-03T02:10:11;96004.09;;;15.23;60.40
10652;BME280;5374;42.742;23.266;2022-11-03T02:12:58;95999.81;;;15.22;60.75
10652;BME280;5374;42.742;23.266;2022-11-03T02:15:47;95999.81;;;15.07;61.34
10652;BME280;5374;42.742;23.266;2022-11-03T02:18:36;96000.03;;;15.00;61.96
10652;BME280;5374;42.742;23.266;2022-11-03T02:21:26;95999.22;;;14.94;62.10
10652;BME280;5374;42.742;23.266;2022-11-03T02:24:21;96006.72;;;14.97;61.97
10652;BME280;5374;42.742;23.266;2022-11-03T02:27:11;95999.47;;;14.83;62.84
10652;BME280;5374;42.742;23.266;2022-11-03T02:29:59;96008.84;;;14.85;62.99
10652;BME280;5374;42.742;23.266;2022-11-03T02:32:55;96008.53;;;14.82;63.25
10652;BME280;5374;42.742;23.266;2022-11-03T02:35:47;95998.09;;;14.75;63.59
10652;BME280;5374;42.742;23.266;2022-11-03T02:38:42;95997.25;;;14.69;63.85
10652;BME280;5374;42.742;23.266;2022-11-03T02:41:33;96001.81;;;14.74;63.93
10652;BME280;5374;42.742;23.266;2022-11-03T02:44:23;96002.34;;;14.71;64.27
10652;BME280;5374;42.742;23.266;2022-11-03T02:47:13;95996.44;;;14.64;64.01
10652;BME280;5374;42.742;23.266;2022-11-03T02:50:03;95993.53;;;14.65;64.25
10652;BME280;5374;42.742;23.266;2022-11-03T02:52:51;95977.16;;;14.57;64.06
10652;BME280;5374;42.742;23.266;2022-11-03T02:55:40;95980.91;;;14.56;64.66
10652;BME280;5374;42.742;23.266;2022-11-03T02:58:35;95999.94;;;14.69;64.40
10652;BME280;5374;42.742;23.266;2022-11-03T03:01:27;95998.06;;;14.70;64.33
10652;BME280;5374;42.742;23.266;2022-11-03T03:04:21;95994.88;;;14.73;64.67
10652;BME280;5374;42.742;23.266;2022-11-03T03:07:15;95992.19;;;14.68;65.41
10652;BME280;5374;42.742;23.266;2022-11-03T03:10:07;95998.88;;;14.65;65.90
10652;BME280;5374;42.742;23.266;2022-11-03T03:12:56;95996.75;;;14.67;65.75
10652;BME280;5374;42.742;23.266;2022-11-03T03:15:47;95993.25;;;14.72;66.08
10652;BME280;5374;42.742;23.266;2022-11-03T03:18:48;95995.66;;;14.68;66.24
10652;BME280;5374;42.742;23.266;2022-11-03T03:21:42;95999.94;;;14.69;66.13
10652;BME280;5374;42.742;23.266;2022-11-03T03:24:36;95997.25;;;14.64;66.19
10652;BME280;5374;42.742;23.266;2022-11-03T03:27:26;95997.78;;;14.61;65.98
10652;BME280;5374;42.742;23.266;2022-11-03T03:30:16;96002.84;;;14.58;65.93
10652;BME280;5374;42.742;23.266;2022-11-03T03:33:06;95992.66;;;14.55;65.97
10652;BME280;5374;42.742;23.266;2022-11-03T03:35:56;96003.31;;;14.45;66.24
10652;BME280;5374;42.742;23.266;2022-11-03T03:38:49;95994.16;;;14.35;66.10
10652;BME280;5374;42.742;23.266;2022-11-03T03:41:39;96003.25;;;14.40;65.90
10652;BME280;5374;42.742;23.266;2022-11-03T03:44:27;95997.06;;;14.34;65.79
10652;BME280;5374;42.742;23.266;2022-11-03T03:47:19;95989.28;;;14.22;66.05
10652;BME280;5374;42.742;23.266;2022-11-03T03:50:09;96004.75;;;14.20;66.02
10652;BME280;5374;42.742;23.266;2022-11-03T03:52:59;95975.53;;;14.03;66.02
10652;BME280;5374;42.742;23.266;2022-11-03T03:55:50;96008.50;;;14.24;66.18
10652;BME280;5374;42.742;23.266;2022-11-03T03:58:37;96005.22;;;14.12;66.58
10652;BME280;5374;42.742;23.266;2022-11-03T04:01:25;96007.28;;;14.00;67.07
10652;BME280;5374;42.742;23.266;2022-11-03T04:04:12;96002.94;;;13.89;67.80
10652;BME280;5374;42.742;23.266;2022-11-03T04:06:59;96008.22;;;13.84;68.12
10652;BME280;5374;42.742;23.266;2022-11-03T04:10:06;96006.88;;;13.81;68.55
10652;BME280;5374;42.742;23.266;2022-11-03T04:12:53;96006.56;;;13.73;69.10
10652;BME280;5374;42.742;23.266;2022-11-03T04:15:58;95975.88;;;13.43;69.90
10652;BME280;5374;42.742;23.266;2022-11-03T04:19:11;95983.38;;;13.46;70.35
10652;BME280;5374;42.742;23.266;2022-11-03T04:22:16;96004.56;;;13.58;70.44
10652;BME280;5374;42.742;23.266;2022-11-03T04:25:05;95994.63;;;13.48;70.68
10652;BME280;5374;42.742;23.266;2022-11-03T04:27:52;96000.44;;;13.45;71.00
10652;BME280;5374;42.742;23.266;2022-11-03T04:30:40;96001.97;;;13.36;71.91
10652;BME280;5374;42.742;23.266;2022-11-03T04:33:28;95996.53;;;13.26;72.39
10652;BME280;5374;42.742;23.266;2022-11-03T04:36:17;95996.50;;;13.21;72.86
10652;BME280;5374;42.742;23.266;2022-11-03T04:39:14;95997.72;;;13.13;72.73
10652;BME280;5374;42.742;23.266;2022-11-03T04:42:13;95981.31;;;12.99;72.31
10652;BME280;5374;42.742;23.266;2022-11-03T04:45:11;96004.06;;;13.07;72.01
10652;BME280;5374;42.742;23.266;2022-11-03T04:48:01;95995.16;;;12.96;72.13
10652;BME280;5374;42.742;23.266;2022-11-03T04:50:58;95999.91;;;12.94;71.93
10652;BME280;5374;42.742;23.266;2022-11-03T04:53:49;95980.53;;;12.77;71.88
10652;BME280;5374;42.742;23.266;2022-11-03T04:56:37;96014.31;;;12.93;71.76
10652;BME280;5374;42.742;23.266;2022-11-03T04:59:27;95985.31;;;12.75;72.21
10652;BME280;5374;42.742;23.266;2022-11-03T05:02:18;95996.91;;;12.86;72.58
10652;BME280;5374;42.742;23.266;2022-11-03T05:05:14;96011.06;;;12.91;73.12
10652;BME280;5374;42.742;23.266;2022-11-03T05:08:04;96008.38;;;12.86;73.15
10652;BME280;5374;42.742;23.266;2022-11-03T05:10:53;95996.78;;;12.76;73.61
10652;BME280;5374;42.742;23.266;2022-11-03T05:13:41;96006.94;;;12.79;73.75
10652;BME280;5374;42.742;23.266;2022-11-03T05:16:30;96014.78;;;12.90;73.83
10652;BME280;5374;42.742;23.266;2022-11-03T05:19:20;96006.06;;;12.95;74.11
10652;BME280;5374;42.742;23.266;2022-11-03T05:22:14;95988.59;;;12.82;74.11
10652;BME280;5374;42.742;23.266;2022-11-03T05:25:29;96018.03;;;12.92;74.72
10652;BME280;5374;42.742;23.266;2022-11-03T05:28:23;96019.06;;;12.91;74.91
10652;BME280;5374;42.742;23.266;2022-11-03T05:31:20;96024.59;;;13.07;74.61
10652;BME280;5374;42.742;23.266;2022-11-03T05:34:24;96001.66;;;13.06;73.84
10652;BME280;5374;42.742;23.266;2022-11-03T05:37:24;96013.34;;;13.26;72.98
10652;BME280;5374;42.742;23.266;2022-11-03T05:40:15;96020.06;;;13.34;72.38
10652;BME280;5374;42.742;23.266;2022-11-03T05:43:07;96043.25;;;13.55;71.76
10652;BME280;5374;42.742;23.266;2022-11-03T05:45:57;96039.09;;;13.69;70.85
10652;BME280;5374;42.742;23.266;2022-11-03T05:48:47;96013.22;;;13.70;69.28
10652;BME280;5374;42.742;23.266;2022-11-03T05:51:38;96018.91;;;13.84;68.72
10652;BME280;5374;42.742;23.266;2022-11-03T05:54:31;96040.25;;;14.16;67.61
10652;BME280;5374;42.742;23.266;2022-11-03T05:57:19;96052.41;;;14.38;66.64
10652;BME280;5374;42.742;23.266;2022-11-03T06:00:23;96059.25;;;14.61;66.30
10652;BME280;5374;42.742;23.266;2022-11-03T06:03:15;96066.84;;;14.85;64.58
10652;BME280;5374;42.742;23.266;2022-11-03T06:06:14;96058.38;;;15.03;63.87
10652;BME280;5374;42.742;23.266;2022-11-03T06:09:09;96065.94;;;15.36;62.83
10652;BME280;5374;42.742;23.266;2022-11-03T06:12:00;96067.97;;;17.66;56.37
10652;BME280;5374;42.742;23.266;2022-11-03T06:14:48;96050.84;;;20.33;47.30
10652;BME280;5374;42.742;23.266;2022-11-03T06:17:36;96074.09;;;21.85;43.46
10652;BME280;5374;42.742;23.266;2022-11-03T06:20:24;96082.09;;;22.57;41.67
10652;BME280;5374;42.742;23.266;2022-11-03T06:23:14;96079.72;;;22.56;41.86
10652;BME280;5374;42.742;23.266;2022-11-03T06:26:12;96077.22;;;23.47;39.87
10652;BME280;5374;42.742;23.266;2022-11-03T06:29:00;96097.28;;;24.37;37.94
10652;BME280;5374;42.742;23.266;2022-11-03T06:31:49;96085.88;;;25.46;36.36
10652;BME280;5374;42.742;23.266;2022-11-03T06:34:41;96087.06;;;26.28;35.25
10652;BME280;5374;42.742;23.266;2022-11-03T06:37:30;96083.41;;;26.90;34.10
10652;BME280;5374;42.742;23.266;2022-11-03T06:40:35;96092.81;;;27.26;33.89
10652;BME280;5374;42.742;23.266;2022-11-03T06:43:26;96098.47;;;27.20;33.83
10652;BME280;5374;42.742;23.266;2022-11-03T06:46:19;96087.16;;;25.99;35.68
10652;BME280;5374;42.742;23.266;2022-11-03T06:49:24;96092.34;;;24.86;37.75
10652;BME280;5374;42.742;23.266;2022-11-03T06:52:21;96102.34;;;23.87;39.73
10652;BME280;5374;42.742;23.266;2022-11-03T06:55:21;96076.22;;;22.64;42.08
10652;BME280;5374;42.742;23.266;2022-11-03T06:58:14;96085.75;;;21.94;43.86
10652;BME280;5374;42.742;23.266;2022-11-03T07:01:15;96090.22;;;21.76;45.05
10652;BME280;5374;42.742;23.266;2022-11-03T07:04:10;96089.66;;;21.52;45.93
10652;BME280;5374;42.742;23.266;2022-11-03T07:07:01;96084.19;;;21.16;46.31
10652;BME280;5374;42.742;23.266;2022-11-03T07:09:48;96080.56;;;20.79;46.89
10652;BME280;5374;42.742;23.266;2022-11-03T07:12:35;96075.16;;;20.79;47.38
10652;BME280;5374;42.742;23.266;2022-11-03T07:15:26;96083.38;;;20.74;48.14
10652;BME280;5374;42.742;23.266;2022-11-03T07:18:19;96082.22;;;20.62;47.99
10652;BME280;5374;42.742;23.266;2022-11-03T07:21:27;96054.84;;;20.55;48.45
10652;BME280;5374;42.742;23.266;2022-11-03T07:24:21;96058.44;;;20.50;48.40
10652;BME280;5374;42.742;23.266;2022-11-03T07:27:14;96046.94;;;20.44;47.97
10652;BME280;5374;42.742;23.266;2022-11-03T07:30:15;96087.63;;;20.62;48.37
10652;BME280;5374;42.742;23.266;2022-11-03T07:33:11;96083.25;;;20.66;48.37
10652;BME280;5374;42.742;23.266;2022-11-03T07:36:02;96069.22;;;20.50;48.21
10652;BME280;5374;42.742;23.266;2022-11-03T07:39:02;96039.28;;;20.00;48.53
10652;BME280;5374;42.742;23.266;2022-11-03T07:41:50;96073.25;;;20.01;48.57
10652;BME280;5374;42.742;23.266;2022-11-03T07:44:39;96078.31;;;20.22;48.65
10652;BME280;5374;42.742;23.266;2022-11-03T07:47:27;96074.59;;;20.18;48.86
10652;BME280;5374;42.742;23.266;2022-11-03T07:50:14;96081.31;;;20.20;49.10
10652;BME280;5374;42.742;23.266;2022-11-03T07:53:11;95957.84;;;19.52;48.61
10652;BME280;5374;42.742;23.266;2022-11-03T07:56:13;96008.16;;;20.08;48.68
10652;BME280;5374;42.742;23.266;2022-11-03T08:02:30;96061.06;;;20.82;48.20
10652;BME280;5374;42.742;23.266;2022-11-03T08:07:01;95993.88;;;20.54;47.80
10652;BME280;5374;42.742;23.266;2022-11-03T08:09:09;95967.84;;;20.30;45.88
10652;BME280;5374;42.742;23.266;2022-11-03T08:16:05;96014.69;;;20.94;46.82
10652;BME280;5374;42.742;23.266;2022-11-03T08:19:03;96050.97;;;21.43;46.56
10652;BME280;5374;42.742;23.266;2022-11-03T08:21:50;96032.84;;;21.43;46.17
10652;BME280;5374;42.742;23.266;2022-11-03T08:35:30;96032.34;;;21.28;45.59
10652;BME280;5374;42.742;23.266;2022-11-03T08:38:32;95946.91;;;20.68;45.39
10652;BME280;5374;42.742;23.266;2022-11-03T08:41:24;96022.47;;;21.09;45.15
10652;BME280;5374;42.742;23.266;2022-11-03T08:44:12;96035.75;;;21.20;45.04
10652;BME280;5374;42.742;23.266;2022-11-03T08:46:59;96036.06;;;21.32;45.21
10652;BME280;5374;42.742;23.266;2022-11-03T08:49:48;96018.06;;;21.27;44.97
10652;BME280;5374;42.742;23.266;2022-11-03T08:52:45;96018.50;;;21.21;45.28
10652;BME280;5374;42.742;23.266;2022-11-03T08:55:32;96022.75;;;21.35;46.15
10652;BME280;5374;42.742;23.266;2022-11-03T08:58:19;96033.66;;;21.44;46.11
10652;BME280;5374;42.742;23.266;2022-11-03T09:01:07;96019.03;;;21.45;45.27
10652;BME280;5374;42.742;23.266;2022-11-03T09:03:54;96026.19;;;21.63;44.92
10652;BME280;5374;42.742;23.266;2022-11-03T09:06:43;96022.38;;;21.64;45.51
10652;BME280;5374;42.742;23.266;2022-11-03T09:09:30;96015.88;;;21.65;45.15
10652;BME280;5374;42.742;23.266;2022-11-03T09:12:17;96011.88;;;21.85;44.15
10652;BME280;5374;42.742;23.266;2022-11-03T09:15:05;96015.56;;;21.89;43.93
10652;BME280;5374;42.742;23.266;2022-11-03T09:17:53;95971.19;;;21.45;44.15
10652;BME280;5374;42.742;23.266;2022-11-03T09:20:40;95993.16;;;21.16;46.31
10652;BME280;5374;42.742;23.266;2022-11-03T09:23:29;96000.06;;;21.59;45.30
10652;BME280;5374;42.742;23.266;2022-11-03T09:26:16;96003.09;;;21.79;44.08
10652;BME280;5374;42.742;23.266;2022-11-03T09:29:03;96000.81;;;21.95;44.30
10652;BME280;5374;42.742;23.266;2022-11-03T09:31:52;95983.78;;;21.95;44.05
10652;BME280;5374;42.742;23.266;2022-11-03T09:34:40;95958.59;;;21.86;43.00
10652;BME280;5374;42.742;23.266;2022-11-03T09:37:27;95986.81;;;22.15;43.51
10652;BME280;5374;42.742;23.266;2022-11-03T09:40:16;95988.41;;;22.16;42.94
10652;BME280;5374;42.742;23.266;2022-11-03T09:43:03;95979.34;;;22.21;41.91
10652;BME280;5374;42.742;23.266;2022-11-03T09:45:52;95965.22;;;22.24;42.10
10652;BME280;5374;42.742;23.266;2022-11-03T09:51:27;95955.25;;;22.42;42.37
10652;BME280;5374;42.742;23.266;2022-11-03T09:54:15;95941.34;;;22.26;41.80
10652;BME280;5374;42.742;23.266;2022-11-03T09:59:44;95929.91;;;22.29;41.39
10652;BME280;5374;42.742;23.266;2022-11-03T10:02:39;95955.69;;;22.66;41.94
10652;BME280;5374;42.742;23.266;2022-11-03T10:05:34;95949.28;;;22.54;40.80
10652;BME280;5374;42.742;23.266;2022-11-03T10:08:29;95904.81;;;22.46;40.73
10652;BME280;5374;42.742;23.266;2022-11-03T10:11:17;95945.16;;;22.56;40.88
10652;BME280;5374;42.742;23.266;2022-11-03T10:14:04;95938.13;;;22.55;41.15
10652;BME280;5374;42.742;23.266;2022-11-03T10:16:57;95882.94;;;22.25;40.89
10652;BME280;5374;42.742;23.266;2022-11-03T10:19:56;95860.75;;;22.14;40.89
10652;BME280;5374;42.742;23.266;2022-11-03T10:23:02;95895.53;;;22.38;40.78
10652;BME280;5374;42.742;23.266;2022-11-03T10:25:49;95927.81;;;22.66;41.01
10652;BME280;5374;42.742;23.266;2022-11-03T10:28:37;95896.25;;;22.52;39.87
10652;BME280;5374;42.742;23.266;2022-11-03T10:31:33;95893.09;;;22.68;39.81
10652;BME280;5374;42.742;23.266;2022-11-03T10:34:27;95903.84;;;22.90;39.47
10652;BME280;5374;42.742;23.266;2022-11-03T10:37:22;95897.00;;;23.01;38.86
10652;BME280;5374;42.742;23.266;2022-11-03T10:40:32;95904.50;;;23.22;39.17
10652;BME280;5374;42.742;23.266;2022-11-03T10:43:21;95867.81;;;23.07;38.26
10652;BME280;5374;42.742;23.266;2022-11-03T10:46:15;95890.19;;;22.56;40.02
10652;BME280;5374;42.742;23.266;2022-11-03T10:49:07;95865.13;;;22.81;39.41
10652;BME280;5374;42.742;23.266;2022-11-03T10:52:08;95862.75;;;22.97;38.85
10652;BME280;5374;42.742;23.266;2022-11-03T10:55:00;95822.06;;;22.71;38.57
10652;BME280;5374;42.742;23.266;2022-11-03T10:57:49;95868.94;;;22.80;39.09
10652;BME280;5374;42.742;23.266;2022-11-03T11:00:39;95879.75;;;22.23;39.42
10652;BME280;5374;42.742;23.266;2022-11-03T11:03:27;95866.81;;;22.20;40.12
10652;BME280;5374;42.742;23.266;2022-11-03T11:06:17;95848.78;;;22.46;39.62
10652;BME280;5374;42.742;23.266;2022-11-03T11:09:11;95853.09;;;22.56;38.90
10652;BME280;5374;42.742;23.266;2022-11-03T11:12:02;95839.06;;;22.63;38.01
10652;BME280;5374;42.742;23.266;2022-11-03T11:14:53;95849.03;;;22.93;38.24
10652;BME280;5374;42.742;23.266;2022-11-03T11:17:44;95833.25;;;22.95;37.27
10652;BME280;5374;42.742;23.266;2022-11-03T11:20:36;95841.22;;;23.00;37.28
10652;BME280;5374;42.742;23.266;2022-11-03T11:23:48;95840.59;;;23.03;37.08
10652;BME280;5374;42.742;23.266;2022-11-03T11:26:39;95833.09;;;23.09;37.22
10652;BME280;5374;42.742;23.266;2022-11-03T11:29:33;95816.84;;;23.00;36.23
10652;BME280;5374;42.742;23.266;2022-11-03T11:32:55;95814.91;;;23.18;36.31
10652;BME280;5374;42.742;23.266;2022-11-03T11:39:08;95817.16;;;23.25;35.75
10652;BME280;5374;42.742;23.266;2022-11-03T11:42:09;95814.13;;;23.17;35.21
10652;BME280;5374;42.742;23.266;2022-11-03T11:45:01;95799.78;;;23.26;35.45
10652;BME280;5374;42.742;23.266;2022-11-03T11:47:51;95798.19;;;23.25;35.46
10652;BME280;5374;42.742;23.266;2022-11-03T11:50:38;95801.81;;;23.37;35.50
10652;BME280;5374;42.742;23.266;2022-11-03T11:53:27;95787.16;;;23.38;35.75
10652;BME280;5374;42.742;23.266;2022-11-03T11:56:17;95795.75;;;23.40;34.99
10652;BME280;5374;42.742;23.266;2022-11-03T11:59:14;95787.78;;;23.44;34.58
10652;BME280;5374;42.742;23.266;2022-11-03T12:02:09;95784.25;;;23.52;34.45
10652;BME280;5374;42.742;23.266;2022-11-03T12:05:04;95786.31;;;23.55;33.69
10652;BME280;5374;42.742;23.266;2022-11-03T12:07:52;95776.25;;;23.64;33.11
10652;BME280;5374;42.742;23.266;2022-11-03T12:10:50;95772.59;;;23.60;33.72
10652;BME280;5374;42.742;23.266;2022-11-03T12:13:46;95772.91;;;23.67;34.11
10652;BME280;5374;42.742;23.266;2022-11-03T12:16:37;95771.00;;;23.59;34.54
10652;BME280;5374;42.742;23.266;2022-11-03T12:19:42;95763.38;;;23.44;34.15
10652;BME280;5374;42.742;23.266;2022-11-03T12:22:40;95756.91;;;23.19;34.84
10652;BME280;5374;42.742;23.266;2022-11-03T12:25:33;95758.94;;;23.31;34.66
10652;BME280;5374;42.742;23.266;2022-11-03T12:28:30;95733.84;;;23.04;34.72
10652;BME280;5374;42.742;23.266;2022-11-03T12:31:18;95751.16;;;23.21;34.56
10652;BME280;5374;42.742;23.266;2022-11-03T12:34:06;95728.84;;;23.06;34.56
10652;BME280;5374;42.742;23.266;2022-11-03T12:36:53;95724.28;;;22.98;34.71
10652;BME280;5374;42.742;23.266;2022-11-03T12:39:41;95743.34;;;23.10;34.68
10652;BME280;5374;42.742;23.266;2022-11-03T12:42:28;95721.88;;;22.88;35.20
10652;BME280;5374;42.742;23.266;2022-11-03T12:45:15;95737.97;;;23.02;35.17
10652;BME280;5374;42.742;23.266;2022-11-03T12:48:02;95722.03;;;23.00;34.98
10652;BME280;5374;42.742;23.266;2022-11-03T12:50:52;95736.69;;;22.91;34.92
10652;BME280;5374;42.742;23.266;2022-11-03T12:53:39;95731.44;;;22.94;34.52
10652;BME280;5374;42.742;23.266;2022-11-03T12:56:26;95730.66;;;22.94;34.52
10652;BME280;5374;42.742;23.266;2022-11-03T12:59:13;95726.53;;;22.79;34.67
10652;BME280;5374;42.742;23.266;2022-11-03T13:02:01;95708.66;;;22.69;34.70
10652;BME280;5374;42.742;23.266;2022-11-03T13:04:48;95723.63;;;22.75;34.37
10652;BME280;5374;42.742;23.266;2022-11-03T13:07:36;95716.19;;;22.81;33.60
10652;BME280;5374;42.742;23.266;2022-11-03T13:10:24;95706.09;;;22.73;33.50
10652;BME280;5374;42.742;23.266;2022-11-03T13:13:11;95696.69;;;22.62;34.07
10652;BME280;5374;42.742;23.266;2022-11-03T13:15:58;95699.09;;;22.72;33.99
10652;BME280;5374;42.742;23.266;2022-11-03T13:18:45;95701.31;;;22.70;33.83
10652;BME280;5374;42.742;23.266;2022-11-03T13:21:32;95697.34;;;22.76;33.42
10652;BME280;5374;42.742;23.266;2022-11-03T13:24:21;95698.16;;;22.68;34.21
10652;BME280;5374;42.742;23.266;2022-11-03T13:27:08;95694.78;;;22.62;33.75
10652;BME280;5374;42.742;23.266;2022-11-03T13:29:55;95691.94;;;22.50;34.26
10652;BME280;5374;42.742;23.266;2022-11-03T13:32:42;95694.50;;;22.55;34.02
10652;BME280;5374;42.742;23.266;2022-11-03T13:35:30;95690.53;;;22.52;33.30
10652;BME280;5374;42.742;23.266;2022-11-03T13:38:17;95687.63;;;22.40;33.66
10652;BME280;5374;42.742;23.266;2022-11-03T13:41:05;95692.41;;;22.43;33.94
10652;BME280;5374;42.742;23.266;2022-11-03T13:43:52;95695.28;;;22.38;34.22
10652;BME280;5374;42.742;23.266;2022-11-03T13:46:40;95686.72;;;22.36;34.24
10652;BME280;5374;42.742;23.266;2022-11-03T13:49:27;95692.75;;;22.33;34.17
10652;BME280;5374;42.742;23.266;2022-11-03T13:52:14;95693.38;;;22.30;34.06
10652;BME280;5374;42.742;23.266;2022-11-03T13:55:01;95686.03;;;22.22;34.11
10652;BME280;5374;42.742;23.266;2022-11-03T13:57:50;95690.97;;;22.20;33.81
10652;BME280;5374;42.742;23.266;2022-11-03T14:00:37;95683.50;;;22.17;33.64
10652;BME280;5374;42.742;23.266;2022-11-03T14:03:24;95696.41;;;22.11;33.61
10652;BME280;5374;42.742;23.266;2022-11-03T14:06:11;95684.59;;;22.07;33.62
10652;BME280;5374;42.742;23.266;2022-11-03T14:08:58;95689.38;;;22.02;33.75
10652;BME280;5374;42.742;23.266;2022-11-03T14:11:46;95684.56;;;21.90;34.31
10652;BME280;5374;42.742;23.266;2022-11-03T14:14:52;95697.59;;;21.88;34.05
10652;BME280;5374;42.742;23.266;2022-11-03T14:17:39;95694.38;;;21.77;34.29
10652;BME280;5374;42.742;23.266;2022-11-03T14:20:26;95687.69;;;21.66;34.46
10652;BME280;5374;42.742;23.266;2022-11-03T14:23:14;95691.00;;;21.63;34.49
10652;BME280;5374;42.742;23.266;2022-11-03T14:26:01;95685.06;;;21.53;34.52
10652;BME280;5374;42.742;23.266;2022-11-03T14:28:48;95692.22;;;21.48;34.91
10652;BME280;5374;42.742;23.266;2022-11-03T14:31:37;95687.13;;;21.47;34.95
10652;BME280;5374;42.742;23.266;2022-11-03T14:34:24;95688.38;;;21.41;35.04
10652;BME280;5374;42.742;23.266;2022-11-03T14:37:11;95692.28;;;21.26;35.36
10652;BME280;5374;42.742;23.266;2022-11-03T14:39:59;95692.72;;;21.20;35.46
10652;BME280;5374;42.742;23.266;2022-11-03T14:42:46;95689.78;;;21.07;35.98
10652;BME280;5374;42.742;23.266;2022-11-03T14:45:32;95691.66;;;20.98;36.35
10652;BME280;5374;42.742;23.266;2022-11-03T14:48:20;95686.19;;;20.90;36.72
10652;BME280;5374;42.742;23.266;2022-11-03T14:51:08;95680.22;;;20.79;37.48
10652;BME280;5374;42.742;23.266;2022-11-03T14:53:55;95673.44;;;20.59;37.93
10652;BME280;5374;42.742;23.266;2022-11-03T14:56:43;95686.88;;;20.51;38.31
10652;BME280;5374;42.742;23.266;2022-11-03T14:59:30;95675.59;;;20.35;38.67
10652;BME280;5374;42.742;23.266;2022-11-03T15:02:17;95680.16;;;20.26;39.25
10652;BME280;5374;42.742;23.266;2022-11-03T15:05:06;95686.56;;;20.16;39.25
10652;BME280;5374;42.742;23.266;2022-11-03T15:08:15;95682.31;;;20.01;39.88
10652;BME280;5374;42.742;23.266;2022-11-03T15:11:02;95681.06;;;19.85;39.92
10652;BME280;5374;42.742;23.266;2022-11-03T15:13:52;95680.47;;;19.74;40.13
10652;BME280;5374;42.742;23.266;2022-11-03T15:16:40;95681.09;;;19.58;40.30
10652;BME280;5374;42.742;23.266;2022-11-03T15:19:28;95679.88;;;19.50;40.47
10652;BME280;5374;42.742;23.266;2022-11-03T15:22:17;95683.34;;;19.37;40.74
10652;BME280;5374;42.742;23.266;2022-11-03T15:25:05;95673.47;;;19.19;41.63
10652;BME280;5374;42.742;23.266;2022-11-03T15:27:53;95682.72;;;19.12;42.53
10652;BME280;5374;42.742;23.266;2022-11-03T15:30:40;95668.84;;;18.92;42.89
10652;BME280;5374;42.742;23.266;2022-11-03T15:33:28;95682.38;;;18.87;42.77
10652;BME280;5374;42.742;23.266;2022-11-03T15:36:15;95681.75;;;18.76;42.60